Arnold, Illinois
Current Conditions -  °F | °C
As of 8:15 PM on Wednesday 22 Oct 2014 (Local Time) from KIJX Reporting Station
Clear Clear  
Wind Chill: 51°   Ceiling: Unl
Heat Index: 51°   Visibility: 10mi
Dew Point: 39°   Wind: 6mph
Humidity: 65%   Direction: 120°ESE
Pressure: 30.22"   Gusts: NA
Location:  39.7413°N, 90.2138°W
Report Text: KIJX 230115Z AUTO 12005KT 10SM CLR 10/04 A3022 RMK AO2 T01040040
Loading
Personal Weather Stations






























Interactive Weather Map
Tropical Storm Tracking
New forecast layout! Learn more

10-Day Weather Forecast

Advertisements
Track Severe Weather on mobile